Reykjavik, Iceland
Current Conditions -  °F | °C
As of 1:00 AM on Monday 24 Nov 2014 (Local Time) from BIRK Reporting Station
Light Rain Light Rain  
Wind Chill: 35°   Ceiling: 2400
Heat Index: 45°   Visibility: 6mi
Dew Point: 37°   Wind: 29mph
Humidity: 76%   Direction: 120°ESE
Pressure: 29.35"   Gusts: 41mph
Location:  64.14°N, 21.92°W
Report Text: BIRK 240100Z 12025G36KT 9999 -RA BKN024 OVC032 07/03 Q0994
Loading
Personal Weather Stations






























Interactive Weather Map New forecast layout! Learn more

10-Day Weather Forecast

Advertisements
Track Severe Weather on mobile